createdAt,value
2023-01-17T00:01:51.544Z,2.37
2023-01-17T00:04:37.194Z,3.00
2023-01-17T00:07:22.622Z,2.23
2023-01-17T00:09:54.559Z,2.07
2023-01-17T00:12:23.272Z,3.40
2023-01-17T00:14:52.304Z,2.40
2023-01-17T00:17:20.047Z,3.27
2023-01-17T00:20:05.300Z,2.93
2023-01-17T00:22:50.827Z,1.80
2023-01-17T00:25:39.331Z,2.43
2023-01-17T00:28:06.294Z,2.57
2023-01-17T00:30:33.421Z,2.27
2023-01-17T00:33:00.592Z,2.33
2023-01-17T00:35:29.191Z,2.60
2023-01-17T00:38:03.363Z,2.33
2023-01-17T00:40:31.729Z,3.13
2023-01-17T00:43:17.137Z,1.97
2023-01-17T00:46:03.359Z,2.73
2023-01-17T00:48:49.229Z,2.63
2023-01-17T00:51:34.724Z,4.93
2023-01-17T00:54:20.757Z,3.10
2023-01-17T00:57:07.592Z,3.90
2023-01-17T00:59:53.038Z,3.30
2023-01-17T01:02:38.679Z,2.20
2023-01-17T01:05:25.313Z,4.07
2023-01-17T01:08:10.774Z,3.80
2023-01-17T01:10:56.326Z,3.27
2023-01-17T01:13:43.923Z,2.43
2023-01-17T01:16:29.904Z,2.97
2023-01-17T01:19:16.140Z,3.27
2023-01-17T01:22:01.689Z,2.73
2023-01-17T01:24:47.825Z,3.27
2023-01-17T01:27:33.353Z,3.63
2023-01-17T01:30:20.236Z,2.80
2023-01-17T01:33:05.738Z,3.00
2023-01-17T01:35:33.473Z,3.50
2023-01-17T01:38:03.380Z,3.80
2023-01-17T01:40:31.267Z,3.90
2023-01-17T01:43:00.744Z,3.23
2023-01-17T01:45:32.136Z,4.00
2023-01-17T01:48:04.991Z,3.73
2023-01-17T01:50:34.622Z,3.70
2023-01-17T01:53:04.618Z,3.67
2023-01-17T01:55:35.402Z,5.03
2023-01-17T01:58:10.098Z,4.00
2023-01-17T02:00:40.929Z,3.47
2023-01-17T02:03:12.785Z,3.47
2023-01-17T02:05:42.463Z,3.80
2023-01-17T02:08:13.745Z,4.63
2023-01-17T02:10:44.385Z,3.73
2023-01-17T02:13:13.588Z,2.93
2023-01-17T02:15:59.219Z,3.63
2023-01-17T02:18:37.962Z,4.20
2023-01-17T02:21:22.267Z,3.23
2023-01-17T02:24:28.339Z,2.37
2023-01-17T02:27:02.170Z,2.57
2023-01-17T02:30:03.991Z,2.90
2023-01-17T02:32:46.864Z,2.97
2023-01-17T02:35:23.138Z,2.33
2023-01-17T02:37:59.229Z,3.77
2023-01-17T02:40:30.533Z,2.77
2023-01-17T02:43:02.741Z,4.10
2023-01-17T02:45:30.556Z,3.30
2023-01-17T02:47:59.660Z,2.70
2023-01-17T02:50:32.614Z,3.77
2023-01-17T02:53:17.992Z,2.67
2023-01-17T02:55:57.812Z,4.50
2023-01-17T02:58:39.665Z,3.43
2023-01-17T03:01:16.158Z,3.20
2023-01-17T03:03:51.352Z,1.80
2023-01-17T03:06:23.524Z,2.20
2023-01-17T03:08:52.897Z,3.60
2023-01-17T03:11:20.890Z,2.47
2023-01-17T03:13:48.602Z,1.87
2023-01-17T03:16:19.668Z,2.80
2023-01-17T03:18:49.279Z,2.43
2023-01-17T03:21:17.076Z,2.37
2023-01-17T03:23:44.783Z,1.77
2023-01-17T03:26:12.559Z,1.60
2023-01-17T03:28:40.369Z,2.40
2023-01-17T03:31:08.234Z,2.17
2023-01-17T03:33:36.775Z,1.30
2023-01-17T03:36:06.456Z,1.47
2023-01-17T03:38:34.181Z,1.57
2023-01-17T03:41:01.983Z,1.73
2023-01-17T03:43:29.739Z,1.87
2023-01-17T03:46:03.513Z,0.90
2023-01-17T03:48:31.508Z,1.23
2023-01-17T03:50:59.262Z,1.60
2023-01-17T03:53:28.300Z,1.00
2023-01-17T03:55:56.035Z,1.00
2023-01-17T03:58:23.759Z,3.30
2023-01-17T04:00:51.532Z,0.80
2023-01-17T04:03:19.335Z,1.37
2023-01-17T04:05:47.031Z,0.80
2023-01-17T04:08:14.791Z,0.90
2023-01-17T04:10:44.038Z,0.80
2023-01-17T04:13:12.093Z,0.70
2023-01-17T04:15:39.913Z,0.70
2023-01-17T04:18:08.345Z,0.80
2023-01-17T04:20:38.042Z,1.33
2023-01-17T04:23:07.084Z,1.17
2023-01-17T04:25:35.142Z,0.60
2023-01-17T04:28:04.623Z,0.97
2023-01-17T04:30:33.824Z,0.90
2023-01-17T04:33:01.607Z,2.30
2023-01-17T04:35:30.724Z,0.70
2023-01-17T04:37:58.435Z,0.60
2023-01-17T04:40:26.553Z,0.77
2023-01-17T04:42:54.970Z,1.50
2023-01-17T04:45:24.237Z,2.23
2023-01-17T04:47:51.963Z,2.00
2023-01-17T04:50:20.188Z,1.50
2023-01-17T04:52:47.989Z,2.20
2023-01-17T04:55:15.858Z,2.33
2023-01-17T04:57:43.547Z,1.13
2023-01-17T05:00:12.347Z,0.83
2023-01-17T05:02:41.405Z,1.33
2023-01-17T05:05:10.287Z,1.70
2023-01-17T05:07:38.092Z,2.60
2023-01-17T05:10:06.765Z,2.60
2023-01-17T05:12:34.468Z,2.50
2023-01-17T05:15:02.207Z,2.57
2023-01-17T05:17:29.917Z,2.70
2023-01-17T05:19:58.955Z,3.23
2023-01-17T05:22:26.769Z,4.00
2023-01-17T05:24:54.517Z,4.27
2023-01-17T05:27:22.212Z,2.40
2023-01-17T05:29:49.933Z,1.53
2023-01-17T05:32:17.656Z,1.77
2023-01-17T05:34:45.365Z,2.43
2023-01-17T05:37:14.418Z,2.80
2023-01-17T05:39:42.128Z,2.73
2023-01-17T05:42:09.817Z,3.27
2023-01-17T05:44:38.680Z,4.10
2023-01-17T05:47:06.409Z,3.80
2023-01-17T05:49:34.327Z,1.97
2023-01-17T05:52:02.187Z,1.80
2023-01-17T05:54:31.248Z,1.60
2023-01-17T05:56:58.922Z,2.70
2023-01-17T05:59:36.693Z,2.97
2023-01-17T06:02:05.241Z,3.50
2023-01-17T06:04:33.100Z,3.83
2023-01-17T06:07:00.834Z,4.17
2023-01-17T06:09:28.687Z,3.40
2023-01-17T06:11:57.743Z,2.20
2023-01-17T06:14:25.447Z,1.80
2023-01-17T06:16:53.152Z,2.13
2023-01-17T06:19:20.880Z,2.30
2023-01-17T06:21:48.620Z,3.00
2023-01-17T06:24:16.335Z,4.10
2023-01-17T06:26:44.667Z,3.23
2023-01-17T06:29:14.024Z,3.77
2023-01-17T06:31:41.695Z,3.97
2023-01-17T06:34:09.443Z,1.93
2023-01-17T06:36:37.339Z,1.93
2023-01-17T06:39:05.246Z,2.23
2023-01-17T06:41:33.398Z,1.43
2023-01-17T06:44:01.103Z,2.33
2023-01-17T06:46:31.203Z,2.73
2023-01-17T06:48:58.921Z,2.13
2023-01-17T06:51:27.863Z,3.43
2023-01-17T06:53:55.615Z,3.50
2023-01-17T06:56:23.339Z,2.50
2023-01-17T06:58:51.888Z,1.40
2023-01-17T07:01:20.206Z,1.50
2023-01-17T07:03:49.354Z,1.87
2023-01-17T07:06:17.144Z,1.80
2023-01-17T07:08:45.043Z,2.97
2023-01-17T07:11:12.880Z,3.30
2023-01-17T07:13:40.926Z,3.87
2023-01-17T07:16:09.793Z,6.10
2023-01-17T07:18:37.577Z,4.17
2023-01-17T07:21:12.471Z,3.77
2023-01-17T07:23:40.167Z,1.50
2023-01-17T07:26:08.531Z,1.60
2023-01-17T07:28:36.229Z,2.10
2023-01-17T07:31:08.035Z,2.47
2023-01-17T07:33:35.995Z,4.53
2023-01-17T07:36:07.630Z,3.20
2023-01-17T07:38:36.046Z,3.80
2023-01-17T07:41:04.120Z,3.83
2023-01-17T07:43:32.540Z,6.93
2023-01-17T07:46:02.128Z,1.30
2023-01-17T07:48:31.315Z,1.97
2023-01-17T07:50:59.881Z,10.80
2023-01-17T07:53:30.748Z,1.97
2023-01-17T07:56:01.744Z,3.67
2023-01-17T07:58:29.706Z,2.53
2023-01-17T08:01:02.982Z,3.23
2023-01-17T08:03:32.406Z,3.57
2023-01-17T08:06:00.445Z,1.50
2023-01-17T08:08:30.437Z,1.50
2023-01-17T08:10:58.820Z,2.13
2023-01-17T08:13:28.447Z,1.77
2023-01-17T08:15:57.501Z,1.70
2023-01-17T08:18:25.284Z,2.87
2023-01-17T08:20:53.036Z,4.13
2023-01-17T08:23:20.962Z,3.07
2023-01-17T08:25:50.321Z,4.80
2023-01-17T08:28:19.726Z,3.67
2023-01-17T08:30:47.454Z,2.03
2023-01-17T08:33:16.072Z,1.70
2023-01-17T08:35:52.325Z,1.50
2023-01-17T08:38:20.277Z,2.83
2023-01-17T08:40:48.021Z,2.70
2023-01-17T08:43:17.329Z,3.00
2023-01-17T08:45:48.207Z,3.90
2023-01-17T08:48:16.123Z,4.43
2023-01-17T08:50:43.861Z,3.33
2023-01-17T08:53:11.557Z,4.47
2023-01-17T08:55:40.989Z,3.03
2023-01-17T08:58:09.093Z,1.67
2023-01-17T09:00:38.163Z,1.60
2023-01-17T09:03:10.335Z,1.17
2023-01-17T09:05:38.079Z,3.00
2023-01-17T09:08:06.130Z,1.43
2023-01-17T09:10:33.877Z,1.30
2023-01-17T09:13:01.863Z,1.90
2023-01-17T09:15:29.703Z,1.40
2023-01-17T09:17:59.059Z,2.23
2023-01-17T09:20:30.108Z,1.73
2023-01-17T09:22:57.839Z,1.83
2023-01-17T09:25:25.633Z,1.37
2023-01-17T09:27:53.320Z,1.40
2023-01-17T09:30:22.147Z,1.37
2023-01-17T09:32:53.475Z,1.20
2023-01-17T09:35:22.555Z,1.57
2023-01-17T09:37:50.843Z,1.10
2023-01-17T09:40:22.798Z,1.00
2023-01-17T09:42:54.484Z,1.20
2023-01-17T09:45:22.348Z,1.17
2023-01-17T09:47:52.210Z,1.10
2023-01-17T09:50:30.285Z,1.33
2023-01-17T09:53:01.859Z,1.23
2023-01-17T09:55:35.167Z,1.10
2023-01-17T09:58:07.555Z,0.90
2023-01-17T10:00:45.269Z,1.20
2023-01-17T10:03:32.702Z,0.80
2023-01-17T10:06:15.189Z,2.30
2023-01-17T10:08:56.972Z,1.20
2023-01-17T10:11:34.448Z,1.10
2023-01-17T10:14:20.965Z,1.80
2023-01-17T10:16:56.049Z,1.33
2023-01-17T10:19:36.503Z,1.83
2023-01-17T10:22:23.386Z,1.63
2023-01-17T10:25:13.056Z,1.13
2023-01-17T10:27:46.601Z,1.20
2023-01-17T10:30:19.493Z,2.13
2023-01-17T10:32:50.225Z,1.80
2023-01-17T10:35:22.957Z,1.13
2023-01-17T10:37:56.735Z,1.00
2023-01-17T10:40:30.653Z,1.07
2023-01-17T10:43:04.074Z,0.90
2023-01-17T10:45:37.132Z,1.00
2023-01-17T10:48:13.856Z,0.80
2023-01-17T10:50:49.846Z,1.80
2023-01-17T10:53:34.195Z,1.63
2023-01-17T10:56:03.119Z,1.27
2023-01-17T10:58:32.156Z,1.23
2023-01-17T11:01:02.394Z,2.50
2023-01-17T11:03:31.100Z,2.20
2023-01-17T11:06:19.979Z,1.13
2023-01-17T11:08:54.023Z,1.20
2023-01-17T11:11:24.249Z,1.90
2023-01-17T11:13:54.254Z,1.10
2023-01-17T11:16:26.710Z,1.50
2023-01-17T11:19:09.356Z,3.27
2023-01-17T11:21:40.358Z,1.77
2023-01-17T11:24:20.554Z,1.33
2023-01-17T11:26:49.712Z,1.00
2023-01-17T11:29:31.318Z,1.43
2023-01-17T11:32:17.358Z,0.80
2023-01-17T11:34:45.238Z,2.20
2023-01-17T11:37:19.522Z,1.47
2023-01-17T11:39:48.943Z,1.03
2023-01-17T11:42:32.683Z,2.77
2023-01-17T11:45:25.458Z,1.30
2023-01-17T11:48:11.035Z,1.87
2023-01-17T11:50:40.717Z,1.67
2023-01-17T11:53:17.907Z,1.50
2023-01-17T11:56:04.127Z,3.13
2023-01-17T11:58:33.844Z,1.57
2023-01-17T12:01:10.805Z,2.33
2023-01-17T12:04:12.802Z,2.00
2023-01-17T12:06:57.796Z,3.13
2023-01-17T12:09:33.005Z,2.77
2023-01-17T12:12:28.091Z,2.53
2023-01-17T12:15:07.297Z,1.83
2023-01-17T12:17:55.160Z,1.60
2023-01-17T12:20:31.884Z,2.33
2023-01-17T12:23:17.350Z,2.27
2023-01-17T12:26:05.674Z,3.33
2023-01-17T12:29:05.451Z,2.40
2023-01-17T12:31:35.355Z,6.37
2023-01-17T12:34:18.656Z,1.77
2023-01-17T12:36:51.722Z,16.03
2023-01-17T12:39:21.795Z,7.03
2023-01-17T12:41:58.604Z,2.43
2023-01-17T12:44:39.967Z,1.53
2023-01-17T12:47:08.256Z,1.30
2023-01-17T12:49:43.642Z,1.23
2023-01-17T12:52:19.697Z,1.20
2023-01-17T12:54:51.324Z,2.83
2023-01-17T12:57:23.777Z,1.83
2023-01-17T13:00:00.619Z,1.20
2023-01-17T13:02:34.580Z,1.37
2023-01-17T13:05:08.503Z,1.90
2023-01-17T13:07:43.874Z,1.37
2023-01-17T13:10:27.523Z,1.60
2023-01-17T13:13:00.125Z,2.53
2023-01-17T13:15:37.483Z,1.50
2023-01-17T13:18:10.492Z,1.50
2023-01-17T13:20:56.225Z,4.40
2023-01-17T13:23:32.328Z,1.93
2023-01-17T13:26:02.015Z,2.23
2023-01-17T13:28:44.610Z,1.50
2023-01-17T13:31:42.751Z,1.33
2023-01-17T13:34:51.485Z,2.63
2023-01-17T13:37:46.385Z,1.93
2023-01-17T13:40:29.843Z,4.27
2023-01-17T13:43:00.680Z,1.03
2023-01-17T13:45:30.775Z,2.67
2023-01-17T13:48:30.954Z,2.97
2023-01-17T13:51:00.875Z,1.70
2023-01-17T13:53:56.194Z,6.53
2023-01-17T13:56:35.019Z,3.97
2023-01-17T13:59:26.743Z,2.83
2023-01-17T14:01:55.295Z,5.93
2023-01-17T14:04:25.945Z,4.70
2023-01-17T14:07:01.232Z,4.93
2023-01-17T14:09:41.887Z,2.00
2023-01-17T14:12:33.225Z,2.57
2023-01-17T14:15:06.542Z,2.87
2023-01-17T14:17:52.167Z,2.27
2023-01-17T14:20:37.095Z,3.27
2023-01-17T14:23:21.856Z,2.53
2023-01-17T14:25:51.562Z,3.30
2023-01-17T14:28:30.353Z,2.50
2023-01-17T14:31:00.477Z,3.07
2023-01-17T14:33:31.267Z,3.47
2023-01-17T14:36:05.133Z,2.47
2023-01-17T14:38:34.493Z,1.30
2023-01-17T14:41:07.538Z,1.60
2023-01-17T14:43:39.969Z,2.73
2023-01-17T14:46:17.961Z,1.33
2023-01-17T14:48:46.214Z,2.57
2023-01-17T14:51:20.092Z,7.47
2023-01-17T14:53:55.252Z,3.47
2023-01-17T14:56:23.053Z,3.60
2023-01-17T14:59:05.715Z,3.63
2023-01-17T15:01:36.206Z,1.90
2023-01-17T15:04:05.264Z,6.07
2023-01-17T15:06:38.632Z,5.23
2023-01-17T15:09:17.425Z,2.13
2023-01-17T15:11:47.747Z,4.93
2023-01-17T15:14:21.226Z,2.67
2023-01-17T15:16:51.934Z,3.17
2023-01-17T15:19:21.763Z,3.17
2023-01-17T15:21:53.263Z,2.60
2023-01-17T15:24:22.902Z,2.67
2023-01-17T15:26:51.395Z,4.07
2023-01-17T15:29:25.107Z,4.67
2023-01-17T15:31:55.052Z,4.13
2023-01-17T15:34:29.362Z,3.07
2023-01-17T15:37:00.981Z,2.57
2023-01-17T15:39:31.338Z,2.97
2023-01-17T15:42:01.562Z,2.07
2023-01-17T15:44:47.555Z,4.97
2023-01-17T15:47:31.560Z,2.40
2023-01-17T15:50:00.635Z,8.17
2023-01-17T15:52:30.131Z,4.43
2023-01-17T15:55:12.211Z,6.13
2023-01-17T15:57:40.437Z,4.73
2023-01-17T16:00:20.397Z,3.67
2023-01-17T16:02:50.063Z,2.40
2023-01-17T16:05:41.813Z,4.47
2023-01-17T16:08:29.565Z,5.83
2023-01-17T16:11:01.864Z,4.80
2023-01-17T16:13:30.930Z,5.13
2023-01-17T16:16:31.754Z,6.00
2023-01-17T16:19:02.803Z,6.10
2023-01-17T16:21:31.924Z,4.60
2023-01-17T16:24:02.888Z,5.33
2023-01-17T16:26:30.694Z,8.73
2023-01-17T16:28:58.443Z,5.87
2023-01-17T16:31:26.338Z,7.70
2023-01-17T16:33:54.250Z,10.27
2023-01-17T16:36:22.984Z,6.20
2023-01-17T16:38:52.209Z,7.30
2023-01-17T16:41:21.730Z,10.23
2023-01-17T16:43:59.031Z,4.53
2023-01-17T16:46:27.027Z,6.80
2023-01-17T16:48:54.867Z,7.00
2023-01-17T16:51:22.646Z,8.43
2023-01-17T16:53:50.697Z,8.13
2023-01-17T16:56:20.174Z,6.30
2023-01-17T16:58:49.298Z,9.87
2023-01-17T17:01:21.140Z,4.53
2023-01-17T17:03:49.451Z,4.93
2023-01-17T17:06:17.214Z,5.33
2023-01-17T17:08:45.915Z,3.93
2023-01-17T17:11:17.428Z,5.53
2023-01-17T17:13:46.664Z,4.43
2023-01-17T17:16:21.006Z,5.70
2023-01-17T17:18:55.757Z,4.53
2023-01-17T17:21:23.654Z,6.27
2023-01-17T17:23:56.609Z,5.73
2023-01-17T17:26:26.577Z,6.10
2023-01-17T17:28:54.828Z,4.63
2023-01-17T17:31:24.127Z,9.33
2023-01-17T17:33:51.926Z,8.70
2023-01-17T17:36:19.882Z,5.53
2023-01-17T17:38:53.622Z,7.40
2023-01-17T17:41:23.496Z,7.77
2023-01-17T17:43:52.193Z,12.23
2023-01-17T17:46:20.671Z,8.83
2023-01-17T17:48:50.309Z,8.10
2023-01-17T17:51:26.416Z,9.77
2023-01-17T17:53:55.184Z,11.30
2023-01-17T17:56:23.159Z,8.20
2023-01-17T17:58:51.247Z,6.27
2023-01-17T18:01:19.188Z,7.80
2023-01-17T18:03:47.123Z,11.93
2023-01-17T18:06:17.362Z,13.60
2023-01-17T18:08:45.505Z,11.37
2023-01-17T18:11:17.796Z,6.47
2023-01-17T18:13:47.674Z,6.87
2023-01-17T18:16:17.751Z,7.20
2023-01-17T18:18:47.646Z,10.37
2023-01-17T18:21:23.450Z,15.20
2023-01-17T18:23:54.096Z,7.90
2023-01-17T18:26:23.851Z,6.73
2023-01-17T18:28:52.748Z,7.50
2023-01-17T18:31:20.579Z,7.27
2023-01-17T18:33:48.383Z,8.00
2023-01-17T18:36:17.543Z,8.23
2023-01-17T18:38:47.357Z,8.83
2023-01-17T18:41:17.731Z,7.50
2023-01-17T18:43:46.518Z,7.03
2023-01-17T18:46:14.500Z,6.83
2023-01-17T18:48:42.410Z,10.67
2023-01-17T18:51:12.124Z,8.43
2023-01-17T18:53:42.905Z,6.30
2023-01-17T18:56:12.931Z,5.63
2023-01-17T18:58:43.315Z,9.63
2023-01-17T19:01:13.692Z,8.70
2023-01-17T19:03:43.310Z,11.37
2023-01-17T19:06:14.555Z,10.87
2023-01-17T19:08:43.870Z,11.67
2023-01-17T19:11:12.823Z,12.20
2023-01-17T19:13:41.912Z,8.30
2023-01-17T19:16:14.517Z,9.93
2023-01-17T19:18:42.570Z,6.83
2023-01-17T19:21:12.776Z,7.93
2023-01-17T19:23:41.026Z,8.93
2023-01-17T19:26:10.718Z,9.60
2023-01-17T19:28:40.249Z,9.30
2023-01-17T19:31:09.747Z,9.03
2023-01-17T19:33:39.331Z,10.37
2023-01-17T19:36:10.439Z,12.30
2023-01-17T19:38:39.069Z,12.30
2023-01-17T19:41:14.970Z,17.47
2023-01-17T19:43:43.545Z,11.47
2023-01-17T19:46:11.973Z,10.27
2023-01-17T19:48:40.566Z,10.35
2023-01-17T19:51:10.971Z,14.07
2023-01-17T19:53:39.601Z,9.70
2023-01-17T19:56:09.547Z,21.90
2023-01-17T19:58:39.434Z,14.47
2023-01-17T20:01:09.479Z,11.93
2023-01-17T20:03:38.640Z,13.60
2023-01-17T20:06:07.601Z,14.37
2023-01-17T20:08:35.785Z,14.30
2023-01-17T20:11:04.811Z,15.47
2023-01-17T20:13:32.883Z,12.57
2023-01-17T20:16:04.449Z,13.20
2023-01-17T20:18:33.656Z,13.63
2023-01-17T20:21:05.573Z,13.67
2023-01-17T20:23:38.340Z,14.07
2023-01-17T20:26:06.817Z,15.50
2023-01-17T20:28:36.178Z,14.90
2023-01-17T20:31:12.570Z,12.60
2023-01-17T20:33:40.758Z,14.40
2023-01-17T20:36:11.490Z,14.80
2023-01-17T20:38:46.220Z,13.47
2023-01-17T20:41:15.850Z,16.53
2023-01-17T20:43:45.099Z,21.47
2023-01-17T20:46:15.618Z,22.63
2023-01-17T20:48:47.106Z,22.17
2023-01-17T20:51:16.549Z,22.23
2023-01-17T20:53:45.851Z,20.60
2023-01-17T20:56:15.650Z,20.50
2023-01-17T20:58:43.893Z,19.23
2023-01-17T21:01:18.984Z,19.67
2023-01-17T21:03:47.998Z,17.87
2023-01-17T21:06:16.315Z,19.13
2023-01-17T21:08:45.597Z,18.00
2023-01-17T21:11:15.370Z,17.30
2023-01-17T21:13:43.730Z,21.73
2023-01-17T21:16:12.748Z,20.13
2023-01-17T21:18:41.804Z,23.27
2023-01-17T21:21:12.645Z,17.93
2023-01-17T21:23:42.254Z,20.93
2023-01-17T21:26:12.918Z,18.70
2023-01-17T21:28:43.146Z,12.03
2023-01-17T21:31:20.465Z,11.57
2023-01-17T21:33:51.116Z,11.13
2023-01-17T21:36:19.700Z,13.80
2023-01-17T21:38:51.980Z,8.50
2023-01-17T21:41:20.846Z,9.20
2023-01-17T21:43:48.889Z,17.43
2023-01-17T21:46:16.665Z,15.93
2023-01-17T21:48:44.442Z,16.93
2023-01-17T21:51:13.562Z,13.33
2023-01-17T21:53:41.425Z,13.83
2023-01-17T21:56:30.758Z,12.70
2023-01-17T21:58:59.757Z,12.07
2023-01-17T22:01:28.989Z,13.00
2023-01-17T22:03:58.808Z,11.73
2023-01-17T22:06:31.053Z,13.53
2023-01-17T22:08:59.486Z,16.40
2023-01-17T22:11:30.528Z,16.67
2023-01-17T22:13:59.394Z,14.70
2023-01-17T22:16:27.612Z,17.77
2023-01-17T22:18:55.325Z,33.27
2023-01-17T22:21:25.103Z,47.53
2023-01-17T22:23:56.441Z,49.00
2023-01-17T22:26:26.733Z,50.17
2023-01-17T22:28:54.870Z,50.00
2023-01-17T22:31:24.402Z,50.43
2023-01-17T22:33:54.751Z,42.00
2023-01-17T22:36:22.866Z,58.37
2023-01-17T22:38:50.635Z,54.50
2023-01-17T22:41:21.755Z,46.87
2023-01-17T22:43:51.288Z,33.57
2023-01-17T22:46:21.100Z,27.13
2023-01-17T22:48:49.690Z,26.83
2023-01-17T22:51:19.328Z,20.60
2023-01-17T22:53:48.863Z,18.87
2023-01-17T22:56:19.577Z,22.73
2023-01-17T22:58:48.847Z,26.67
2023-01-17T23:01:18.345Z,23.77
2023-01-17T23:03:47.328Z,20.90
2023-01-17T23:06:17.363Z,21.40
2023-01-17T23:08:47.343Z,24.30
2023-01-17T23:11:40.522Z,25.30
2023-01-17T23:14:10.718Z,29.03
2023-01-17T23:16:56.568Z,24.17
2023-01-17T23:19:24.700Z,26.67
2023-01-17T23:22:11.349Z,23.43
2023-01-17T23:24:43.022Z,26.23
2023-01-17T23:27:31.632Z,20.03
2023-01-17T23:29:59.920Z,20.83
2023-01-17T23:32:28.299Z,24.40
2023-01-17T23:34:56.035Z,19.77
2023-01-17T23:37:47.916Z,28.00
2023-01-17T23:40:16.239Z,22.00
2023-01-17T23:43:03.036Z,20.67
2023-01-17T23:45:30.813Z,18.87
2023-01-17T23:47:58.518Z,21.10
2023-01-17T23:50:26.336Z,24.63
2023-01-17T23:52:54.191Z,27.90
2023-01-17T23:55:23.141Z,22.87
2023-01-17T23:57:52.787Z,25.37
